sensor_id;sensor_type;location;lat;lon;timestamp;pressure;altitude;pressure_sealevel;temperature;humidity
70815;BME280;58428;49.478;10.986;2023-03-18T00:02:07;97976.72;;;9.12;100.00
70815;BME280;58428;49.478;10.986;2023-03-18T00:04:33;97975.59;;;9.13;100.00
70815;BME280;58428;49.478;10.986;2023-03-18T00:06:59;97981.38;;;9.03;100.00
70815;BME280;58428;49.478;10.986;2023-03-18T00:09:26;97975.31;;;9.06;100.00
70815;BME280;58428;49.478;10.986;2023-03-18T00:11:51;97976.13;;;9.07;100.00
70815;BME280;58428;49.478;10.986;2023-03-18T00:14:18;97984.72;;;9.00;100.00
70815;BME280;58428;49.478;10.986;2023-03-18T00:16:48;97987.91;;;8.94;100.00
70815;BME280;58428;49.478;10.986;2023-03-18T00:19:15;97982.88;;;8.84;100.00
70815;BME280;58428;49.478;10.986;2023-03-18T00:21:42;97979.13;;;8.77;100.00
70815;BME280;58428;49.478;10.986;2023-03-18T00:24:08;97981.03;;;8.76;100.00
70815;BME280;58428;49.478;10.986;2023-03-18T00:26:33;97982.63;;;8.69;100.00
70815;BME280;58428;49.478;10.986;2023-03-18T00:28:59;97981.53;;;8.70;100.00
70815;BME280;58428;49.478;10.986;2023-03-18T00:31:26;97983.16;;;8.62;100.00
70815;BME280;58428;49.478;10.986;2023-03-18T00:33:53;97981.25;;;8.63;100.00
70815;BME280;58428;49.478;10.986;2023-03-18T00:36:19;97988.69;;;8.66;100.00
70815;BME280;58428;49.478;10.986;2023-03-18T00:38:51;97989.31;;;8.63;100.00
70815;BME280;58428;49.478;10.986;2023-03-18T00:41:22;97988.41;;;8.59;100.00
70815;BME280;58428;49.478;10.986;2023-03-18T00:43:48;97990.81;;;8.52;100.00
70815;BME280;58428;49.478;10.986;2023-03-18T00:48:45;97984.03;;;8.46;100.00
70815;BME280;58428;49.478;10.986;2023-03-18T00:51:11;97990.19;;;8.46;100.00
70815;BME280;58428;49.478;10.986;2023-03-18T00:53:44;97989.41;;;8.46;100.00
70815;BME280;58428;49.478;10.986;2023-03-18T00:56:11;97987.66;;;8.42;100.00
70815;BME280;58428;49.478;10.986;2023-03-18T00:58:38;97992.41;;;8.44;100.00
70815;BME280;58428;49.478;10.986;2023-03-18T01:01:04;97985.44;;;8.43;100.00
70815;BME280;58428;49.478;10.986;2023-03-18T01:03:30;97981.31;;;8.38;100.00
70815;BME280;58428;49.478;10.986;2023-03-18T01:05:56;97981.31;;;8.38;100.00
70815;BME280;58428;49.478;10.986;2023-03-18T01:08:22;97989.56;;;8.41;100.00
70815;BME280;58428;49.478;10.986;2023-03-18T01:10:48;97988.00;;;8.40;100.00
70815;BME280;58428;49.478;10.986;2023-03-18T01:13:15;97982.78;;;8.35;100.00
70815;BME280;58428;49.478;10.986;2023-03-18T01:15:43;97988.78;;;8.32;100.00
70815;BME280;58428;49.478;10.986;2023-03-18T01:18:10;97989.75;;;8.28;100.00
70815;BME280;58428;49.478;10.986;2023-03-18T01:20:37;97988.81;;;8.24;100.00
70815;BME280;58428;49.478;10.986;2023-03-18T01:23:04;97989.31;;;8.17;100.00
70815;BME280;58428;49.478;10.986;2023-03-18T01:25:30;97999.47;;;8.12;100.00
70815;BME280;58428;49.478;10.986;2023-03-18T01:27:55;97993.88;;;8.08;100.00
70815;BME280;58428;49.478;10.986;2023-03-18T01:30:21;97996.28;;;8.02;100.00
70815;BME280;58428;49.478;10.986;2023-03-18T01:32:48;98002.16;;;8.04;100.00
70815;BME280;58428;49.478;10.986;2023-03-18T01:35:15;98001.06;;;7.96;100.00
70815;BME280;58428;49.478;10.986;2023-03-18T01:37:41;98000.41;;;7.91;100.00
70815;BME280;58428;49.478;10.986;2023-03-18T01:40:09;98002.63;;;7.89;100.00
70815;BME280;58428;49.478;10.986;2023-03-18T01:42:35;98004.06;;;7.95;100.00
70815;BME280;58428;49.478;10.986;2023-03-18T01:45:21;97999.31;;;7.92;100.00
70815;BME280;58428;49.478;10.986;2023-03-18T01:47:48;98011.84;;;7.88;100.00
70815;BME280;58428;49.478;10.986;2023-03-18T01:50:18;97996.63;;;7.92;100.00
70815;BME280;58428;49.478;10.986;2023-03-18T01:52:45;98000.88;;;7.93;100.00
70815;BME280;58428;49.478;10.986;2023-03-18T01:55:20;98004.38;;;7.93;100.00
70815;BME280;58428;49.478;10.986;2023-03-18T01:57:48;98008.19;;;7.92;100.00
70815;BME280;58428;49.478;10.986;2023-03-18T02:00:16;98008.34;;;7.87;100.00
70815;BME280;58428;49.478;10.986;2023-03-18T02:02:45;98011.38;;;7.86;100.00
70815;BME280;58428;49.478;10.986;2023-03-18T02:05:17;98014.19;;;7.89;100.00
70815;BME280;58428;49.478;10.986;2023-03-18T02:07:44;98008.50;;;7.91;100.00
70815;BME280;58428;49.478;10.986;2023-03-18T02:10:19;98019.44;;;7.94;100.00
70815;BME280;58428;49.478;10.986;2023-03-18T02:12:50;98021.97;;;7.91;100.00
70815;BME280;58428;49.478;10.986;2023-03-18T02:15:17;98015.63;;;7.95;100.00
70815;BME280;58428;49.478;10.986;2023-03-18T02:18:33;98019.75;;;7.93;100.00
70815;BME280;58428;49.478;10.986;2023-03-18T02:27:28;98025.75;;;7.81;100.00
70815;BME280;58428;49.478;10.986;2023-03-18T02:30:00;98032.75;;;7.82;100.00
70815;BME280;58428;49.478;10.986;2023-03-18T02:32:29;98030.06;;;7.82;100.00
70815;BME280;58428;49.478;10.986;2023-03-18T02:34:56;98032.09;;;7.77;100.00
70815;BME280;58428;49.478;10.986;2023-03-18T02:37:24;98036.56;;;7.65;100.00
70815;BME280;58428;49.478;10.986;2023-03-18T02:39:49;98042.84;;;7.60;100.00
70815;BME280;58428;49.478;10.986;2023-03-18T02:42:27;98041.44;;;7.54;100.00
70815;BME280;58428;49.478;10.986;2023-03-18T02:44:52;98043.16;;;7.50;100.00
70815;BME280;58428;49.478;10.986;2023-03-18T02:47:19;98042.06;;;7.51;100.00
70815;BME280;58428;49.478;10.986;2023-03-18T02:49:46;98030.84;;;7.58;100.00
70815;BME280;58428;49.478;10.986;2023-03-18T02:52:12;98038.13;;;7.57;100.00
70815;BME280;58428;49.478;10.986;2023-03-18T02:54:37;98040.97;;;7.52;100.00
70815;BME280;58428;49.478;10.986;2023-03-18T02:57:03;98046.66;;;7.51;100.00
70815;BME280;58428;49.478;10.986;2023-03-18T02:59:33;98043.66;;;7.44;100.00
70815;BME280;58428;49.478;10.986;2023-03-18T03:01:59;98055.34;;;7.39;100.00
70815;BME280;58428;49.478;10.986;2023-03-18T03:04:27;98045.69;;;7.30;100.00
70815;BME280;58428;49.478;10.986;2023-03-18T03:06:53;98064.03;;;7.36;100.00
70815;BME280;58428;49.478;10.986;2023-03-18T03:09:20;98058.66;;;7.36;100.00
70815;BME280;58428;49.478;10.986;2023-03-18T03:11:47;98061.84;;;7.38;100.00
70815;BME280;58428;49.478;10.986;2023-03-18T03:14:15;98060.25;;;7.37;100.00
70815;BME280;58428;49.478;10.986;2023-03-18T03:16:41;98063.88;;;7.33;100.00
70815;BME280;58428;49.478;10.986;2023-03-18T03:19:07;98065.78;;;7.32;100.00
70815;BME280;58428;49.478;10.986;2023-03-18T03:21:34;98073.34;;;7.22;100.00
70815;BME280;58428;49.478;10.986;2023-03-18T03:24:02;98072.06;;;7.20;100.00
70815;BME280;58428;49.478;10.986;2023-03-18T03:26:30;98077.91;;;7.22;100.00
70815;BME280;58428;49.478;10.986;2023-03-18T03:28:55;98079.22;;;7.24;100.00
70815;BME280;58428;49.478;10.986;2023-03-18T03:31:24;98073.19;;;7.27;100.00
70815;BME280;58428;49.478;10.986;2023-03-18T03:33:50;98076.06;;;7.31;100.00
70815;BME280;58428;49.478;10.986;2023-03-18T03:36:18;98066.88;;;7.32;100.00
70815;BME280;58428;49.478;10.986;2023-03-18T03:38:44;98084.13;;;7.31;100.00
70815;BME280;58428;49.478;10.986;2023-03-18T03:41:11;98081.91;;;7.24;100.00
70815;BME280;58428;49.478;10.986;2023-03-18T03:43:38;98081.91;;;7.24;100.00
70815;BME280;58428;49.478;10.986;2023-03-18T03:46:05;98073.50;;;7.26;100.00
70815;BME280;58428;49.478;10.986;2023-03-18T03:48:34;98084.59;;;7.24;100.00
70815;BME280;58428;49.478;10.986;2023-03-18T03:51:00;98078.69;;;7.14;100.00
70815;BME280;58428;49.478;10.986;2023-03-18T03:53:26;98083.09;;;7.10;100.00
70815;BME280;58428;49.478;10.986;2023-03-18T03:55:52;98085.97;;;7.13;100.00
70815;BME280;58428;49.478;10.986;2023-03-18T03:58:19;98083.28;;;7.13;100.00
70815;BME280;58428;49.478;10.986;2023-03-18T04:00:45;98083.47;;;7.17;100.00
70815;BME280;58428;49.478;10.986;2023-03-18T04:03:11;98090.41;;;7.09;100.00
70815;BME280;58428;49.478;10.986;2023-03-18T04:05:36;98090.22;;;7.06;100.00
70815;BME280;58428;49.478;10.986;2023-03-18T04:08:02;98090.09;;;7.11;100.00
70815;BME280;58428;49.478;10.986;2023-03-18T04:10:29;98085.69;;;7.15;100.00
70815;BME280;58428;49.478;10.986;2023-03-18T04:12:55;98090.25;;;7.14;100.00
70815;BME280;58428;49.478;10.986;2023-03-18T04:15:21;98092.13;;;7.14;100.00
70815;BME280;58428;49.478;10.986;2023-03-18T04:17:48;98098.34;;;7.14;100.00
70815;BME280;58428;49.478;10.986;2023-03-18T04:20:15;98092.78;;;7.11;100.00
70815;BME280;58428;49.478;10.986;2023-03-18T04:22:42;98088.00;;;7.08;100.00
70815;BME280;58428;49.478;10.986;2023-03-18T04:25:09;98086.44;;;7.07;100.00
70815;BME280;58428;49.478;10.986;2023-03-18T04:27:35;98090.56;;;7.13;100.00
70815;BME280;58428;49.478;10.986;2023-03-18T04:30:03;98089.63;;;7.17;100.00
70815;BME280;58428;49.478;10.986;2023-03-18T04:32:28;98082.53;;;7.21;100.00
70815;BME280;58428;49.478;10.986;2023-03-18T04:34:54;98085.50;;;7.20;100.00
70815;BME280;58428;49.478;10.986;2023-03-18T04:37:19;98080.28;;;7.15;100.00
70815;BME280;58428;49.478;10.986;2023-03-18T04:39:48;98082.50;;;7.13;100.00
70815;BME280;58428;49.478;10.986;2023-03-18T04:42:14;98084.22;;;7.09;100.00
70815;BME280;58428;49.478;10.986;2023-03-18T04:44:40;98086.75;;;7.05;100.00
70815;BME280;58428;49.478;10.986;2023-03-18T04:47:07;98081.97;;;7.02;100.00
70815;BME280;58428;49.478;10.986;2023-03-18T04:49:33;98085.47;;;7.03;100.00
70815;BME280;58428;49.478;10.986;2023-03-18T04:51:59;98094.31;;;7.03;100.00
70815;BME280;58428;49.478;10.986;2023-03-18T04:54:26;98095.13;;;7.04;100.00
70815;BME280;58428;49.478;10.986;2023-03-18T04:56:51;98092.88;;;6.97;100.00
70815;BME280;58428;49.478;10.986;2023-03-18T04:59:17;98089.88;;;6.99;100.00
70815;BME280;58428;49.478;10.986;2023-03-18T05:01:43;98097.03;;;7.03;100.00
70815;BME280;58428;49.478;10.986;2023-03-18T05:04:08;98088.47;;;7.01;100.00
70815;BME280;58428;49.478;10.986;2023-03-18T05:06:34;98090.19;;;6.97;100.00
70815;BME280;58428;49.478;10.986;2023-03-18T05:09:00;98092.03;;;6.89;100.00
70815;BME280;58428;49.478;10.986;2023-03-18T05:11:27;98101.81;;;6.85;100.00
70815;BME280;58428;49.478;10.986;2023-03-18T05:13:52;98106.59;;;6.88;100.00
70815;BME280;58428;49.478;10.986;2023-03-18T05:16:18;98103.94;;;6.96;100.00
70815;BME280;58428;49.478;10.986;2023-03-18T05:18:43;98103.47;;;7.02;100.00
70815;BME280;58428;49.478;10.986;2023-03-18T05:21:11;98098.75;;;6.99;100.00
70815;BME280;58428;49.478;10.986;2023-03-18T05:23:37;98094.63;;;7.02;100.00
70815;BME280;58428;49.478;10.986;2023-03-18T05:26:03;98098.44;;;7.01;100.00
70815;BME280;58428;49.478;10.986;2023-03-18T05:28:32;98103.19;;;7.04;100.00
70815;BME280;58428;49.478;10.986;2023-03-18T05:30:58;98099.41;;;7.05;100.00
70815;BME280;58428;49.478;10.986;2023-03-18T05:33:25;98105.38;;;7.02;100.00
70815;BME280;58428;49.478;10.986;2023-03-18T05:35:51;98107.28;;;7.01;100.00
70815;BME280;58428;49.478;10.986;2023-03-18T05:38:17;98111.41;;;6.99;100.00
70815;BME280;58428;49.478;10.986;2023-03-18T05:40:46;98109.03;;;6.97;100.00
70815;BME280;58428;49.478;10.986;2023-03-18T05:43:11;98105.38;;;6.94;100.00
70815;BME280;58428;49.478;10.986;2023-03-18T05:45:37;98104.09;;;6.91;100.00
70815;BME280;58428;49.478;10.986;2023-03-18T05:48:03;98109.78;;;6.90;100.00
70815;BME280;58428;49.478;10.986;2023-03-18T05:50:31;98108.81;;;6.86;100.00
70815;BME280;58428;49.478;10.986;2023-03-18T05:52:58;98106.31;;;6.89;100.00
70815;BME280;58428;49.478;10.986;2023-03-18T05:55:25;98115.16;;;6.90;100.00
70815;BME280;58428;49.478;10.986;2023-03-18T05:57:52;98109.78;;;6.90;100.00
70815;BME280;58428;49.478;10.986;2023-03-18T06:00:21;98114.66;;;6.88;100.00
70815;BME280;58428;49.478;10.986;2023-03-18T06:02:49;98109.09;;;6.84;100.00
70815;BME280;58428;49.478;10.986;2023-03-18T06:05:17;98108.03;;;6.85;100.00
70815;BME280;58428;49.478;10.986;2023-03-18T06:07:43;98111.31;;;6.82;100.00
70815;BME280;58428;49.478;10.986;2023-03-18T06:10:10;98105.66;;;6.92;100.00
70815;BME280;58428;49.478;10.986;2023-03-18T06:12:37;98122.75;;;6.96;100.00
70815;BME280;58428;49.478;10.986;2023-03-18T06:17:30;98115.22;;;7.06;100.00
70815;BME280;58428;49.478;10.986;2023-03-18T06:19:55;98119.53;;;7.16;100.00
70815;BME280;58428;49.478;10.986;2023-03-18T06:22:21;98111.50;;;7.24;100.00
70815;BME280;58428;49.478;10.986;2023-03-18T06:24:47;98111.34;;;7.29;100.00
70815;BME280;58428;49.478;10.986;2023-03-18T06:27:13;98114.88;;;7.38;100.00
70815;BME280;58428;49.478;10.986;2023-03-18T06:29:38;98120.75;;;7.48;100.00
70815;BME280;58428;49.478;10.986;2023-03-18T06:32:05;98120.63;;;7.53;100.00
70815;BME280;58428;49.478;10.986;2023-03-18T06:34:32;98119.50;;;7.54;100.00
70815;BME280;58428;49.478;10.986;2023-03-18T06:37:00;98124.56;;;7.56;100.00
70815;BME280;58428;49.478;10.986;2023-03-18T06:39:26;98131.53;;;7.57;100.00
70815;BME280;58428;49.478;10.986;2023-03-18T06:41:52;98130.31;;;7.63;100.00
70815;BME280;58428;49.478;10.986;2023-03-18T06:44:20;98127.09;;;7.52;100.00
70815;BME280;58428;49.478;10.986;2023-03-18T06:46:45;98129.09;;;7.38;100.00
70815;BME280;58428;49.478;10.986;2023-03-18T06:49:12;98127.66;;;7.32;100.00
70815;BME280;58428;49.478;10.986;2023-03-18T06:51:40;98137.50;;;7.37;100.00
70815;BME280;58428;49.478;10.986;2023-03-18T06:54:05;98132.44;;;7.35;100.00
70815;BME280;58428;49.478;10.986;2023-03-18T06:56:31;98133.53;;;7.43;100.00
70815;BME280;58428;49.478;10.986;2023-03-18T06:59:04;98131.22;;;7.50;100.00
70815;BME280;58428;49.478;10.986;2023-03-18T07:01:30;98132.47;;;7.44;100.00
70815;BME280;58428;49.478;10.986;2023-03-18T07:04:00;98131.81;;;7.47;100.00
70815;BME280;58428;49.478;10.986;2023-03-18T07:06:29;98138.50;;;7.58;100.00
70815;BME280;58428;49.478;10.986;2023-03-18T07:08:55;98148.50;;;7.57;100.00
70815;BME280;58428;49.478;10.986;2023-03-18T07:11:22;98147.13;;;7.76;100.00
70815;BME280;58428;49.478;10.986;2023-03-18T07:13:47;98144.72;;;7.83;100.00
70815;BME280;58428;49.478;10.986;2023-03-18T07:16:18;98144.44;;;7.93;100.00
70815;BME280;58428;49.478;10.986;2023-03-18T07:18:44;98141.75;;;8.02;100.00
70815;BME280;58428;49.478;10.986;2023-03-18T07:21:10;98143.50;;;8.06;100.00
70815;BME280;58428;49.478;10.986;2023-03-18T07:23:35;98142.06;;;8.08;100.00
70815;BME280;58428;49.478;10.986;2023-03-18T07:26:01;98144.00;;;8.16;100.00
70815;BME280;58428;49.478;10.986;2023-03-18T07:28:27;98153.16;;;8.07;100.00
70815;BME280;58428;49.478;10.986;2023-03-18T07:30:55;98162.38;;;8.14;100.00
70815;BME280;58428;49.478;10.986;2023-03-18T07:33:24;98162.72;;;8.21;100.00
70815;BME280;58428;49.478;10.986;2023-03-18T07:35:52;98169.72;;;8.31;100.00
70815;BME280;58428;49.478;10.986;2023-03-18T07:38:21;98167.97;;;8.35;100.00
70815;BME280;58428;49.478;10.986;2023-03-18T07:40:47;98159.88;;;8.43;100.00
70815;BME280;58428;49.478;10.986;2023-03-18T07:43:15;98162.72;;;8.55;100.00
70815;BME280;58428;49.478;10.986;2023-03-18T07:45:41;98171.59;;;8.64;100.00
70815;BME280;58428;49.478;10.986;2023-03-18T07:48:07;98166.97;;;8.73;100.00
70815;BME280;58428;49.478;10.986;2023-03-18T07:50:34;98170.94;;;8.83;100.00
70815;BME280;58428;49.478;10.986;2023-03-18T07:53:01;98174.41;;;8.92;100.00
70815;BME280;58428;49.478;10.986;2023-03-18T07:55:28;98171.84;;;8.96;100.00
70815;BME280;58428;49.478;10.986;2023-03-18T07:57:56;98178.38;;;8.95;100.00
70815;BME280;58428;49.478;10.986;2023-03-18T08:00:22;98181.56;;;8.88;100.00
70815;BME280;58428;49.478;10.986;2023-03-18T08:02:48;98173.13;;;8.90;100.00
70815;BME280;58428;49.478;10.986;2023-03-18T08:05:14;98173.75;;;8.95;100.00
70815;BME280;58428;49.478;10.986;2023-03-18T08:07:41;98175.63;;;9.03;100.00
70815;BME280;58428;49.478;10.986;2023-03-18T08:10:08;98182.59;;;9.13;100.00
70815;BME280;58428;49.478;10.986;2023-03-18T08:12:34;98169.88;;;9.21;100.00
70815;BME280;58428;49.478;10.986;2023-03-18T08:14:59;98182.22;;;9.31;100.00
70815;BME280;58428;49.478;10.986;2023-03-18T08:17:25;98181.41;;;9.39;100.00
70815;BME280;58428;49.478;10.986;2023-03-18T08:19:51;98182.00;;;9.44;100.00
70815;BME280;58428;49.478;10.986;2023-03-18T08:22:17;98191.97;;;9.52;100.00
70815;BME280;58428;49.478;10.986;2023-03-18T08:24:45;98189.59;;;9.59;100.00
70815;BME280;58428;49.478;10.986;2023-03-18T08:27:11;98188.28;;;9.65;100.00
70815;BME280;58428;49.478;10.986;2023-03-18T08:29:38;98184.94;;;9.68;100.00
70815;BME280;58428;49.478;10.986;2023-03-18T08:32:04;98186.97;;;9.71;100.00
70815;BME280;58428;49.478;10.986;2023-03-18T08:34:35;98179.53;;;9.68;100.00
70815;BME280;58428;49.478;10.986;2023-03-18T08:37:02;98184.94;;;9.68;100.00
70815;BME280;58428;49.478;10.986;2023-03-18T08:39:30;98184.09;;;9.76;100.00
70815;BME280;58428;49.478;10.986;2023-03-18T08:41:57;98191.75;;;9.74;100.00
70815;BME280;58428;49.478;10.986;2023-03-18T08:44:24;98191.88;;;9.77;100.00
70815;BME280;58428;49.478;10.986;2023-03-18T08:46:51;98195.66;;;9.93;100.00
70815;BME280;58428;49.478;10.986;2023-03-18T08:49:18;98193.34;;;10.03;100.00
70815;BME280;58428;49.478;10.986;2023-03-18T08:51:43;98193.88;;;10.17;100.00
70815;BME280;58428;49.478;10.986;2023-03-18T08:54:09;98187.91;;;10.32;100.00
70815;BME280;58428;49.478;10.986;2023-03-18T08:56:36;98188.69;;;10.32;100.00
70815;BME280;58428;49.478;10.986;2023-03-18T08:59:05;98188.69;;;10.32;100.00
70815;BME280;58428;49.478;10.986;2023-03-18T09:01:31;98187.69;;;10.37;100.00
70815;BME280;58428;49.478;10.986;2023-03-18T09:03:57;98192.53;;;10.52;100.00
70815;BME280;58428;49.478;10.986;2023-03-18T09:06:28;98180.44;;;10.69;100.00
70815;BME280;58428;49.478;10.986;2023-03-18T09:08:56;98178.16;;;10.92;100.00
70815;BME280;58428;49.478;10.986;2023-03-18T09:11:22;98177.00;;;11.13;100.00
70815;BME280;58428;49.478;10.986;2023-03-18T09:13:48;98178.16;;;11.36;100.00
70815;BME280;58428;49.478;10.986;2023-03-18T09:16:14;98175.63;;;11.51;100.00
70815;BME280;58428;49.478;10.986;2023-03-18T09:18:39;98162.06;;;11.63;100.00
70815;BME280;58428;49.478;10.986;2023-03-18T09:21:06;98171.78;;;11.76;100.00
70815;BME280;58428;49.478;10.986;2023-03-18T09:23:32;98166.38;;;11.87;100.00
70815;BME280;58428;49.478;10.986;2023-03-18T09:25:58;98163.66;;;11.99;100.00
70815;BME280;58428;49.478;10.986;2023-03-18T09:28:31;98159.34;;;12.10;100.00
70815;BME280;58428;49.478;10.986;2023-03-18T09:31:02;98158.88;;;12.20;100.00
70815;BME280;58428;49.478;10.986;2023-03-18T09:33:28;98161.56;;;12.32;100.00
70815;BME280;58428;49.478;10.986;2023-03-18T09:35:54;98164.13;;;12.40;100.00
70815;BME280;58428;49.478;10.986;2023-03-18T09:38:22;98159.75;;;12.36;100.00
70815;BME280;58428;49.478;10.986;2023-03-18T09:46:39;98156.88;;;12.83;100.00
70815;BME280;58428;49.478;10.986;2023-03-18T09:52:36;98158.91;;;13.13;100.00
70815;BME280;58428;49.478;10.986;2023-03-18T09:57:49;98161.22;;;13.42;100.00
70815;BME280;58428;49.478;10.986;2023-03-18T10:03:13;98156.38;;;13.66;100.00
70815;BME280;58428;49.478;10.986;2023-03-18T10:11:47;98158.84;;;14.01;100.00
70815;BME280;58428;49.478;10.986;2023-03-18T10:14:36;98163.75;;;14.11;100.00
70815;BME280;58428;49.478;10.986;2023-03-18T10:17:29;98150.38;;;14.22;100.00
70815;BME280;58428;49.478;10.986;2023-03-18T10:19:57;98154.03;;;14.29;100.00
70815;BME280;58428;49.478;10.986;2023-03-18T10:24:58;98155.13;;;14.25;100.00
70815;BME280;58428;49.478;10.986;2023-03-18T10:33:56;98139.88;;;14.76;100.00
70815;BME280;58428;49.478;10.986;2023-03-18T10:36:52;98138.25;;;14.91;100.00
70815;BME280;58428;49.478;10.986;2023-03-18T10:39:22;98138.84;;;15.03;100.00
70815;BME280;58428;49.478;10.986;2023-03-18T10:41:51;98126.63;;;15.12;100.00
70815;BME280;58428;49.478;10.986;2023-03-18T10:46:58;98121.84;;;15.28;100.00
70815;BME280;58428;49.478;10.986;2023-03-18T10:49:36;98117.31;;;15.36;100.00
70815;BME280;58428;49.478;10.986;2023-03-18T10:52:09;98119.78;;;15.44;100.00
70815;BME280;58428;49.478;10.986;2023-03-18T10:54:43;98113.34;;;15.55;100.00
70815;BME280;58428;49.478;10.986;2023-03-18T10:57:16;98107.59;;;15.60;100.00
70815;BME280;58428;49.478;10.986;2023-03-18T10:59:44;98108.88;;;15.66;100.00
70815;BME280;58428;49.478;10.986;2023-03-18T11:02:25;98103.50;;;15.73;100.00
70815;BME280;58428;49.478;10.986;2023-03-18T11:04:58;98106.00;;;15.82;100.00
70815;BME280;58428;49.478;10.986;2023-03-18T11:11:19;98106.44;;;15.83;100.00
70815;BME280;58428;49.478;10.986;2023-03-18T11:13:47;98097.91;;;15.88;100.00
70815;BME280;58428;49.478;10.986;2023-03-18T11:16:23;98098.13;;;16.02;100.00
70815;BME280;58428;49.478;10.986;2023-03-18T11:18:53;98099.94;;;16.17;100.00
70815;BME280;58428;49.478;10.986;2023-03-18T11:21:25;98101.97;;;16.23;100.00
70815;BME280;58428;49.478;10.986;2023-03-18T11:23:59;98097.38;;;16.31;100.00
70815;BME280;58428;49.478;10.986;2023-03-18T11:26:54;98097.50;;;16.41;100.00
70815;BME280;58428;49.478;10.986;2023-03-18T11:29:22;98090.84;;;16.39;100.00
70815;BME280;58428;49.478;10.986;2023-03-18T11:31:58;98090.97;;;16.46;100.00
70815;BME280;58428;49.478;10.986;2023-03-18T11:34:30;98089.56;;;16.29;100.00
70815;BME280;58428;49.478;10.986;2023-03-18T11:36:58;98089.72;;;16.40;100.00
70815;BME280;58428;49.478;10.986;2023-03-18T11:39:29;98083.59;;;16.50;100.00
70815;BME280;58428;49.478;10.986;2023-03-18T11:41:57;98083.72;;;16.60;100.00
70815;BME280;58428;49.478;10.986;2023-03-18T11:44:30;98081.41;;;16.62;100.00
70815;BME280;58428;49.478;10.986;2023-03-18T11:47:08;98078.00;;;16.72;100.00
70815;BME280;58428;49.478;10.986;2023-03-18T11:49:35;98074.50;;;16.71;100.00
70815;BME280;58428;49.478;10.986;2023-03-18T11:58:17;98062.44;;;17.12;97.73
70815;BME280;58428;49.478;10.986;2023-03-18T12:06:27;98057.28;;;17.07;96.12
70815;BME280;58428;49.478;10.986;2023-03-18T12:09:05;98058.31;;;17.28;97.73
70815;BME280;58428;49.478;10.986;2023-03-18T12:26:52;98033.28;;;17.72;91.27
70815;BME280;58428;49.478;10.986;2023-03-18T12:43:51;98025.97;;;17.94;84.03
70815;BME280;58428;49.478;10.986;2023-03-18T12:47:08;98017.81;;;18.01;87.29
70815;BME280;58428;49.478;10.986;2023-03-18T12:49:38;98013.50;;;18.00;87.95
70815;BME280;58428;49.478;10.986;2023-03-18T12:52:07;98020.19;;;18.02;86.82
70815;BME280;58428;49.478;10.986;2023-03-18T12:54:46;98022.09;;;17.95;86.82
70815;BME280;58428;49.478;10.986;2023-03-18T12:57:19;98023.78;;;18.13;88.53
70815;BME280;58428;49.478;10.986;2023-03-18T12:59:56;98019.56;;;18.29;85.83
70815;BME280;58428;49.478;10.986;2023-03-18T13:02:35;98027.75;;;18.22;82.12
70815;BME280;58428;49.478;10.986;2023-03-18T13:05:05;98018.78;;;18.32;86.61
70815;BME280;58428;49.478;10.986;2023-03-18T13:07:49;98022.34;;;18.40;84.26
70815;BME280;58428;49.478;10.986;2023-03-18T13:10:38;98021.19;;;18.44;83.25
70815;BME280;58428;49.478;10.986;2023-03-18T13:13:07;98020.81;;;18.49;84.69
70815;BME280;58428;49.478;10.986;2023-03-18T13:15:43;98019.66;;;18.53;84.69
70815;BME280;58428;49.478;10.986;2023-03-18T13:18:19;98022.03;;;18.62;85.10
70815;BME280;58428;49.478;10.986;2023-03-18T13:20:47;98015.00;;;18.64;84.16
70815;BME280;58428;49.478;10.986;2023-03-18T13:29:11;98012.53;;;18.39;75.76
70815;BME280;58428;49.478;10.986;2023-03-18T13:40:07;97999.81;;;18.98;80.29
70815;BME280;58428;49.478;10.986;2023-03-18T13:42:40;98009.59;;;18.95;79.06
70815;BME280;58428;49.478;10.986;2023-03-18T13:48:04;97997.44;;;18.86;77.61
70815;BME280;58428;49.478;10.986;2023-03-18T13:50:33;97989.19;;;18.82;78.90
70815;BME280;58428;49.478;10.986;2023-03-18T13:53:01;97992.69;;;18.73;77.39
70815;BME280;58428;49.478;10.986;2023-03-18T13:55:41;97987.63;;;18.75;78.96
70815;BME280;58428;49.478;10.986;2023-03-18T14:03:57;97982.06;;;18.54;74.30
70815;BME280;58428;49.478;10.986;2023-03-18T14:11:51;97979.44;;;17.87;78.34
70815;BME280;58428;49.478;10.986;2023-03-18T14:17:04;97976.00;;;18.07;79.21
70815;BME280;58428;49.478;10.986;2023-03-18T14:19:30;97976.88;;;18.18;79.32
70815;BME280;58428;49.478;10.986;2023-03-18T14:22:07;97974.19;;;18.35;78.99
70815;BME280;58428;49.478;10.986;2023-03-18T14:24:33;97971.91;;;18.61;78.21
70815;BME280;58428;49.478;10.986;2023-03-18T14:29:47;97970.88;;;19.11;77.19
70815;BME280;58428;49.478;10.986;2023-03-18T14:32:34;97979.06;;;19.14;73.07
70815;BME280;58428;49.478;10.986;2023-03-18T14:36:07;97973.19;;;19.05;70.97
70815;BME280;58428;49.478;10.986;2023-03-18T14:38:19;97972.41;;;19.08;73.87
70815;BME280;58428;49.478;10.986;2023-03-18T14:41:23;97966.94;;;19.29;68.43
70815;BME280;58428;49.478;10.986;2023-03-18T14:43:59;97963.78;;;19.37;69.92
70815;BME280;58428;49.478;10.986;2023-03-18T14:46:38;97964.59;;;19.34;69.16
70815;BME280;58428;49.478;10.986;2023-03-18T14:51:57;97960.66;;;19.11;69.05
70815;BME280;58428;49.478;10.986;2023-03-18T14:54:23;97964.53;;;18.86;69.91
70815;BME280;58428;49.478;10.986;2023-03-18T14:56:54;97963.34;;;18.77;70.52
70815;BME280;58428;49.478;10.986;2023-03-18T14:59:23;97960.19;;;18.71;71.49
70815;BME280;58428;49.478;10.986;2023-03-18T15:02:23;97957.84;;;18.77;71.42
70815;BME280;58428;49.478;10.986;2023-03-18T15:08:33;97962.97;;;18.81;71.34